Main page
METAR-TAF:

METAR-TAF

Airports :

Mariehamn Airport

Mariehamn, Finland

latitude: 60-07N, longitude: 019-54E, elevation: 6 m

Current weather observation

The report was made 19 minutes ago, at 10:50 UTC
Wind 1 kt from variable directions
Temperature 0°C
Humidity 93%
Pressure 1010 hPa
Visibility 10 km or more
Overcast at a height of 600 ft

METAR: EFMA 061050Z AUTO VRB01KT 9999 OVC006 00/M01 Q1010

Time: 13:09 (11:09 UTC)

Forecast

The report was made 2 hours and 36 minutes ago, at 08:33 UTC
Forecast valid from 06 at 09 UTC to 06 at 18 UTC
Wind 1 kt from variable directions
Visibility 10 km or more
Overcast at a height of 500 ft
Probability 40%
from 06 at 09 UTC to 06 at 11 UTC
Overcast at a height of 400 ft
Becoming
from 06 at 11 UTC to 06 at 13 UTC
Scattered clouds at a height of 700 ft
Broken clouds at a height of 2000 ft

TAF: EFMA 060833Z 0609/0618 VRB01KT 9999 OVC005 PROB40 0609/0611 OVC004 BECMG 0611/0613 SCT007 BKN020

Weather observations and forecasts of more than 4000 airports (METAR and TAF reports).

The available stations are represented by yellow and red dots on the map.

Hover mouse over dot to see the name of the station.

Then click to see weather observations and forecasts.

To change the map : click on the green buttons with a black cross to zoom in, on the green button with a dash to zoom out, or on the green arrows for adjacent maps.


METAR-TAF: